createdAt,value
2022-09-01T00:00:29.058Z,73.18
2022-09-01T00:02:57.513Z,73.44
2022-09-01T00:05:25.864Z,73.41
2022-09-01T00:07:54.204Z,73.36
2022-09-01T00:10:22.754Z,73.43
2022-09-01T00:12:52.712Z,73.46
2022-09-01T00:15:20.981Z,73.48
2022-09-01T00:17:49.441Z,73.64
2022-09-01T00:20:20.525Z,73.69
2022-09-01T00:22:49.609Z,73.63
2022-09-01T00:25:20.352Z,73.61
2022-09-01T00:27:49.593Z,73.63
2022-09-01T00:30:20.571Z,73.95
2022-09-01T00:32:49.385Z,73.79
2022-09-01T00:35:20.009Z,73.73
2022-09-01T00:37:48.444Z,74.01
2022-09-01T00:40:19.618Z,74.04
2022-09-01T00:42:48.964Z,74.00
2022-09-01T00:45:21.698Z,73.84
2022-09-01T00:47:51.484Z,73.98
2022-09-01T00:50:22.267Z,74.16
2022-09-01T00:52:54.230Z,74.00
2022-09-01T00:55:26.840Z,74.26
2022-09-01T00:57:55.226Z,74.06
2022-09-01T01:00:29.791Z,74.07
2022-09-01T01:02:58.785Z,74.06
2022-09-01T01:05:33.047Z,74.38
2022-09-01T01:08:03.293Z,74.30
2022-09-01T01:10:35.899Z,74.36
2022-09-01T01:13:08.835Z,74.44
2022-09-01T01:15:39.094Z,74.25
2022-09-01T01:18:07.480Z,74.29
2022-09-01T01:20:54.008Z,74.37
2022-09-01T01:23:31.806Z,74.51
2022-09-01T01:26:02.160Z,74.55
2022-09-01T01:28:33.718Z,74.63
2022-09-01T01:31:11.908Z,74.50
2022-09-01T01:33:45.206Z,74.60
2022-09-01T01:36:19.353Z,74.50
2022-09-01T01:38:50.488Z,74.68
2022-09-01T01:41:22.000Z,74.62
2022-09-01T01:43:51.030Z,74.77
2022-09-01T01:46:20.777Z,74.86
2022-09-01T01:48:52.409Z,74.99
2022-09-01T01:51:25.043Z,74.89
2022-09-01T01:53:53.643Z,74.90
2022-09-01T01:56:25.739Z,74.94
2022-09-01T01:58:54.714Z,74.97
2022-09-01T02:01:25.393Z,75.02
2022-09-01T02:03:55.080Z,75.05
2022-09-01T02:06:26.538Z,74.97
2022-09-01T02:08:57.929Z,75.23
2022-09-01T02:11:28.816Z,75.08
2022-09-01T02:13:57.781Z,75.24
2022-09-01T02:16:28.516Z,75.32
2022-09-01T02:18:57.010Z,75.29
2022-09-01T02:21:27.136Z,75.28
2022-09-01T02:24:01.464Z,75.22
2022-09-01T02:26:34.280Z,75.35
2022-09-01T02:29:05.161Z,75.15
2022-09-01T02:31:39.220Z,75.19
2022-09-01T02:34:10.724Z,75.35
2022-09-01T02:36:42.466Z,75.28
2022-09-01T02:39:11.056Z,75.42
2022-09-01T02:41:41.844Z,75.48
2022-09-01T02:44:12.690Z,75.40
2022-09-01T02:46:43.077Z,75.70
2022-09-01T02:49:15.336Z,75.48
2022-09-01T02:51:44.844Z,75.48
2022-09-01T02:54:17.583Z,75.44
2022-09-01T02:56:48.124Z,75.52
2022-09-01T02:59:16.894Z,75.50
2022-09-01T03:01:47.593Z,75.64
2022-09-01T03:04:16.665Z,75.65
2022-09-01T03:06:45.556Z,75.55
2022-09-01T03:09:17.500Z,75.66
2022-09-01T03:11:50.785Z,75.75
2022-09-01T03:14:19.683Z,75.54
2022-09-01T03:16:48.217Z,75.70
2022-09-01T03:19:17.483Z,75.66
2022-09-01T03:21:48.709Z,75.55
2022-09-01T03:24:19.751Z,75.73
2022-09-01T03:26:51.280Z,75.84
2022-09-01T03:29:20.183Z,75.86
2022-09-01T03:31:49.307Z,75.90
2022-09-01T03:34:21.685Z,75.85
2022-09-01T03:36:51.173Z,76.00
2022-09-01T03:39:20.599Z,76.07
2022-09-01T03:41:50.274Z,75.98
2022-09-01T03:44:18.919Z,76.18
2022-09-01T03:46:47.941Z,76.03
2022-09-01T03:49:16.981Z,75.98
2022-09-01T03:51:46.150Z,76.21
2022-09-01T03:54:14.888Z,76.28
2022-09-01T03:56:43.827Z,76.29
2022-09-01T03:59:17.061Z,76.30
2022-09-01T04:01:47.149Z,76.25
2022-09-01T04:04:16.702Z,76.40
2022-09-01T04:06:47.046Z,76.30
2022-09-01T04:09:16.102Z,76.50
2022-09-01T04:11:46.335Z,76.45
2022-09-01T04:14:16.273Z,76.45
2022-09-01T04:17:03.537Z,76.53
2022-09-01T04:19:36.999Z,76.53
2022-09-01T04:22:07.836Z,76.39
2022-09-01T04:24:36.253Z,76.44
2022-09-01T04:27:07.601Z,76.57
2022-09-01T04:29:37.541Z,76.52
2022-09-01T04:32:12.934Z,76.46
2022-09-01T04:34:42.164Z,76.61
2022-09-01T04:37:14.672Z,76.58
2022-09-01T04:39:51.463Z,76.58
2022-09-01T04:42:24.191Z,76.52
2022-09-01T04:44:57.522Z,76.57
2022-09-01T04:47:30.280Z,76.60
2022-09-01T04:50:13.048Z,76.53
2022-09-01T04:52:43.055Z,76.56
2022-09-01T04:55:17.668Z,76.48
2022-09-01T04:57:49.206Z,76.69
2022-09-01T05:00:24.700Z,76.72
2022-09-01T05:03:03.055Z,76.53
2022-09-01T05:05:39.583Z,76.54
2022-09-01T05:08:13.793Z,76.73
2022-09-01T05:10:55.718Z,76.50
2022-09-01T05:13:24.862Z,76.57
2022-09-01T05:16:06.155Z,76.61
2022-09-01T05:18:35.446Z,76.77
2022-09-01T05:21:11.158Z,76.75
2022-09-01T05:23:40.411Z,76.79
2022-09-01T05:26:17.000Z,76.71
2022-09-01T05:28:45.681Z,76.68
2022-09-01T05:31:19.706Z,76.72
2022-09-01T05:33:50.091Z,76.81
2022-09-01T05:36:21.278Z,76.75
2022-09-01T05:38:52.388Z,76.52
2022-09-01T05:41:23.900Z,76.50
2022-09-01T05:43:57.815Z,76.50
2022-09-01T05:46:30.175Z,76.45
2022-09-01T05:48:59.021Z,76.54
2022-09-01T05:51:50.867Z,76.46
2022-09-01T05:54:23.087Z,76.12
2022-09-01T05:56:53.573Z,75.83
2022-09-01T05:59:24.919Z,75.80
2022-09-01T06:01:56.531Z,75.45
2022-09-01T06:04:26.876Z,75.27
2022-09-01T06:07:05.877Z,75.07
2022-09-01T06:09:40.223Z,74.95
2022-09-01T06:12:09.804Z,75.22
2022-09-01T06:14:38.086Z,74.67
2022-09-01T06:17:10.114Z,74.35
2022-09-01T06:19:39.984Z,74.01
2022-09-01T06:22:10.625Z,74.18
2022-09-01T06:24:40.068Z,73.93
2022-09-01T06:27:10.067Z,73.69
2022-09-01T06:29:39.726Z,73.62
2022-09-01T06:32:10.773Z,73.73
2022-09-01T06:34:42.494Z,73.50
2022-09-01T06:37:10.996Z,73.36
2022-09-01T06:39:39.449Z,73.18
2022-09-01T06:42:13.740Z,73.25
2022-09-01T06:44:42.054Z,73.18
2022-09-01T06:47:11.733Z,72.88
2022-09-01T06:49:41.043Z,72.82
2022-09-01T06:52:11.769Z,72.66
2022-09-01T06:54:43.789Z,72.48
2022-09-01T07:00:01.435Z,72.00
2022-09-01T07:02:34.018Z,71.98
2022-09-01T07:05:03.264Z,71.75
2022-09-01T07:10:23.570Z,71.44
2022-09-01T07:13:11.621Z,71.44
2022-09-01T07:18:32.320Z,70.92
2022-09-01T07:21:36.259Z,70.73
2022-09-01T07:24:13.204Z,70.53
2022-09-01T07:26:47.170Z,70.68
2022-09-01T07:29:16.611Z,70.13
2022-09-01T07:31:49.344Z,70.26
2022-09-01T07:39:56.087Z,69.19
2022-09-01T07:45:30.614Z,68.63
2022-09-01T07:48:03.216Z,68.46
2022-09-01T07:51:35.087Z,68.19
2022-09-01T07:53:25.414Z,67.81
2022-09-01T07:55:56.348Z,67.42
2022-09-01T07:58:27.618Z,67.30
2022-09-01T08:00:57.423Z,67.45
2022-09-01T08:03:26.880Z,67.19
2022-09-01T08:06:00.852Z,66.73
2022-09-01T08:08:29.647Z,66.34
2022-09-01T08:11:05.313Z,65.71
2022-09-01T08:13:37.324Z,65.33
2022-09-01T08:16:18.418Z,65.36
2022-09-01T08:18:49.347Z,65.66
2022-09-01T08:21:23.437Z,65.71
2022-09-01T08:23:53.654Z,65.71
2022-09-01T08:26:24.867Z,65.74
2022-09-01T08:28:55.190Z,66.11
2022-09-01T08:31:26.171Z,66.09
2022-09-01T08:33:59.043Z,66.34
2022-09-01T08:36:28.721Z,66.39
2022-09-01T08:38:56.979Z,66.55
2022-09-01T08:41:40.897Z,66.63
2022-09-01T08:44:29.418Z,66.68
2022-09-01T08:47:04.652Z,66.66
2022-09-01T08:49:44.356Z,66.98
2022-09-01T08:52:25.486Z,66.76
2022-09-01T08:55:00.164Z,66.70
2022-09-01T08:57:34.600Z,66.80
2022-09-01T09:00:03.320Z,67.04
2022-09-01T09:02:46.471Z,66.83
2022-09-01T09:05:40.118Z,66.92
2022-09-01T09:08:38.711Z,67.01
2022-09-01T09:11:15.677Z,67.33
2022-09-01T09:14:00.731Z,67.21
2022-09-01T09:16:34.328Z,66.80
2022-09-01T09:19:08.606Z,66.30
2022-09-01T09:21:40.718Z,65.54
2022-09-01T09:24:21.505Z,65.19
2022-09-01T09:26:51.915Z,64.85
2022-09-01T09:29:21.995Z,64.56
2022-09-01T09:32:06.478Z,64.40
2022-09-01T09:34:39.464Z,63.81
2022-09-01T09:37:26.579Z,63.25
2022-09-01T09:40:11.271Z,63.09
2022-09-01T09:42:41.923Z,63.41
2022-09-01T09:45:24.755Z,63.59
2022-09-01T09:47:54.871Z,63.87
2022-09-01T09:50:27.275Z,63.97
2022-09-01T09:53:11.828Z,64.00
2022-09-01T09:55:59.105Z,64.29
2022-09-01T09:58:34.979Z,64.19
2022-09-01T10:01:17.540Z,63.02
2022-09-01T10:03:50.305Z,63.16
2022-09-01T10:06:32.429Z,63.20
2022-09-01T10:09:02.966Z,62.55
2022-09-01T10:11:41.394Z,62.14
2022-09-01T10:14:36.170Z,62.15
2022-09-01T10:17:13.335Z,62.22
2022-09-01T10:19:54.259Z,62.33
2022-09-01T10:22:24.957Z,62.42
2022-09-01T10:24:53.638Z,62.57
2022-09-01T10:27:26.492Z,62.57
2022-09-01T10:32:56.146Z,62.71
2022-09-01T10:35:30.801Z,62.76
2022-09-01T10:38:02.167Z,62.53
2022-09-01T10:40:43.447Z,62.49
2022-09-01T10:43:41.071Z,62.02
2022-09-01T10:46:50.866Z,61.74
2022-09-01T10:50:01.488Z,61.67
2022-09-01T10:53:01.182Z,61.46
2022-09-01T10:55:48.314Z,61.58
2022-09-01T11:02:24.814Z,58.46
2022-09-01T11:05:20.287Z,58.12
2022-09-01T11:08:15.170Z,58.35
2022-09-01T11:10:53.409Z,58.41
2022-09-01T11:13:37.058Z,58.51
2022-09-01T11:16:53.378Z,58.38
2022-09-01T11:19:41.195Z,57.59
2022-09-01T11:22:43.811Z,56.85
2022-09-01T11:25:45.262Z,55.74
2022-09-01T11:28:42.826Z,57.36
2022-09-01T11:31:41.088Z,57.41
2022-09-01T11:34:20.154Z,57.65
2022-09-01T11:37:01.360Z,57.72
2022-09-01T11:39:43.025Z,57.06
2022-09-01T11:42:21.114Z,56.80
2022-09-01T11:44:58.872Z,56.55
2022-09-01T11:47:33.220Z,56.65
2022-09-01T11:50:06.113Z,55.40
2022-09-01T11:52:41.437Z,56.28
2022-09-01T11:55:11.515Z,55.57
2022-09-01T11:57:42.077Z,55.08
2022-09-01T12:00:13.603Z,54.84
2022-09-01T12:02:48.775Z,54.53
2022-09-01T12:05:32.473Z,53.12
2022-09-01T12:08:03.949Z,53.80
2022-09-01T12:10:38.341Z,53.70
2022-09-01T12:13:09.770Z,53.48
2022-09-01T12:15:55.200Z,53.31
2022-09-01T12:18:35.106Z,53.10
2022-09-01T12:21:07.904Z,52.95
2022-09-01T12:23:40.245Z,52.84
2022-09-01T12:26:12.827Z,52.41
2022-09-01T12:28:42.365Z,53.07
2022-09-01T12:31:19.212Z,52.78
2022-09-01T12:33:49.991Z,53.12
2022-09-01T12:36:27.631Z,52.86
2022-09-01T12:38:57.660Z,53.78
2022-09-01T12:41:38.946Z,53.59
2022-09-01T12:44:35.531Z,53.80
2022-09-01T12:47:07.379Z,53.67
2022-09-01T12:49:50.368Z,53.35
2022-09-01T12:52:26.735Z,52.41
2022-09-01T12:58:08.768Z,52.48
2022-09-01T13:00:55.784Z,52.38
2022-09-01T13:03:24.235Z,52.01
2022-09-01T13:05:56.571Z,52.01
2022-09-01T13:08:27.091Z,52.13
2022-09-01T13:11:01.191Z,52.43
2022-09-01T13:13:30.318Z,52.33
2022-09-01T13:16:01.600Z,51.99
2022-09-01T13:18:31.321Z,51.96
2022-09-01T13:21:02.012Z,51.97
2022-09-01T13:23:30.746Z,51.72
2022-09-01T13:25:59.268Z,51.57
2022-09-01T13:28:28.419Z,51.52
2022-09-01T13:36:49.189Z,51.57
2022-09-01T13:39:20.373Z,51.34
2022-09-01T13:41:49.376Z,51.18
2022-09-01T13:44:18.429Z,51.34
2022-09-01T13:50:04.597Z,51.60
2022-09-01T13:52:25.504Z,51.65
2022-09-01T13:54:53.941Z,51.52
2022-09-01T13:57:22.289Z,51.27
2022-09-01T13:59:50.554Z,51.41
2022-09-01T14:02:18.964Z,51.52
2022-09-01T14:04:47.464Z,51.52
2022-09-01T14:07:16.204Z,51.55
2022-09-01T14:09:45.926Z,51.57
2022-09-01T14:12:14.267Z,51.60
2022-09-01T14:15:15.630Z,51.78
2022-09-01T14:17:30.926Z,51.80
2022-09-01T14:19:59.232Z,51.72
2022-09-01T14:22:27.844Z,51.89
2022-09-01T14:24:57.879Z,51.84
2022-09-01T14:27:26.311Z,51.73
2022-09-01T14:29:55.129Z,52.01
2022-09-01T14:32:26.891Z,52.09
2022-09-01T14:34:56.518Z,51.98
2022-09-01T14:37:25.507Z,51.98
2022-09-01T14:39:56.818Z,51.97
2022-09-01T14:42:28.736Z,51.95
2022-09-01T14:44:57.633Z,51.81
2022-09-01T14:47:26.032Z,51.90
2022-09-01T14:49:54.741Z,51.92
2022-09-01T14:52:23.205Z,51.90
2022-09-01T14:54:51.510Z,52.04
2022-09-01T14:57:31.127Z,51.96
2022-09-01T15:00:10.270Z,52.24
2022-09-01T15:02:39.241Z,52.13
2022-09-01T15:05:09.517Z,52.17
2022-09-01T15:07:38.370Z,52.07
2022-09-01T15:10:10.528Z,52.01
2022-09-01T15:12:45.761Z,51.92
2022-09-01T15:15:14.068Z,51.93
2022-09-01T15:17:44.617Z,51.92
2022-09-01T15:20:32.376Z,51.62
2022-09-01T15:23:01.968Z,51.90
2022-09-01T15:25:30.292Z,52.04
2022-09-01T15:28:00.182Z,51.95
2022-09-01T15:30:28.712Z,51.90
2022-09-01T15:32:57.006Z,51.85
2022-09-01T15:35:25.563Z,51.96
2022-09-01T15:37:53.824Z,51.84
2022-09-01T15:40:25.069Z,51.74
2022-09-01T15:42:54.711Z,52.10
2022-09-01T15:45:26.305Z,51.89
2022-09-01T15:47:54.736Z,51.80
2022-09-01T15:50:27.529Z,52.01
2022-09-01T15:52:59.537Z,51.97
2022-09-01T15:55:31.347Z,52.09
2022-09-01T15:58:00.461Z,52.25
2022-09-01T16:00:30.937Z,52.24
2022-09-01T16:03:01.815Z,52.25
2022-09-01T16:05:30.428Z,52.27
2022-09-01T16:07:58.999Z,52.43
2022-09-01T16:10:27.558Z,52.09
2022-09-01T16:12:56.501Z,52.14
2022-09-01T16:15:26.399Z,52.16
2022-09-01T16:18:12.499Z,52.06
2022-09-01T16:20:49.621Z,52.22
2022-09-01T16:23:21.651Z,52.49
2022-09-01T16:25:54.323Z,52.28
2022-09-01T16:28:28.672Z,52.55
2022-09-01T16:31:04.510Z,52.64
2022-09-01T16:36:29.926Z,52.60
2022-09-01T16:39:10.556Z,53.00
2022-09-01T16:41:52.072Z,52.66
2022-09-01T16:44:35.964Z,52.92
2022-09-01T16:47:23.291Z,53.13
2022-09-01T16:50:05.289Z,52.99
2022-09-01T16:52:45.268Z,53.38
2022-09-01T16:55:26.374Z,53.19
2022-09-01T16:58:02.759Z,53.42
2022-09-01T17:00:41.516Z,53.32
2022-09-01T17:03:19.461Z,53.44
2022-09-01T17:05:57.395Z,53.55
2022-09-01T17:08:31.117Z,53.66
2022-09-01T17:11:07.359Z,53.79
2022-09-01T17:13:40.899Z,54.15
2022-09-01T17:16:16.589Z,53.88
2022-09-01T17:18:53.896Z,54.28
2022-09-01T17:21:31.284Z,54.37
2022-09-01T17:24:12.242Z,54.48
2022-09-01T17:26:50.788Z,54.61
2022-09-01T17:29:26.912Z,54.55
2022-09-01T17:32:04.353Z,54.98
2022-09-01T17:34:44.313Z,54.92
2022-09-01T17:37:28.904Z,55.11
2022-09-01T17:40:11.481Z,55.21
2022-09-01T17:42:53.740Z,55.09
2022-09-01T17:45:29.086Z,55.54
2022-09-01T17:48:08.968Z,55.53
2022-09-01T17:50:54.885Z,55.49
2022-09-01T17:53:39.990Z,55.58
2022-09-01T17:56:24.149Z,55.81
2022-09-01T17:59:02.838Z,56.24
2022-09-01T18:01:39.970Z,56.13
2022-09-01T18:04:38.720Z,56.44
2022-09-01T18:07:27.878Z,56.40
2022-09-01T18:10:00.491Z,56.58
2022-09-01T18:12:30.812Z,56.99
2022-09-01T18:15:08.881Z,57.04
2022-09-01T18:17:42.301Z,57.24
2022-09-01T18:20:17.968Z,57.01
2022-09-01T18:25:40.943Z,57.38
2022-09-01T18:28:09.850Z,57.53
2022-09-01T18:30:55.737Z,57.59
2022-09-01T18:33:28.824Z,57.89
2022-09-01T18:36:15.971Z,58.24
2022-09-01T18:38:51.373Z,58.57
2022-09-01T18:41:40.336Z,58.42
2022-09-01T18:44:26.717Z,58.92
2022-09-01T18:47:01.436Z,58.92
2022-09-01T18:49:40.508Z,59.56
2022-09-01T18:52:26.642Z,59.34
2022-09-01T18:55:06.229Z,59.78
2022-09-01T18:57:41.276Z,60.07
2022-09-01T19:00:18.197Z,60.13
2022-09-01T19:03:11.578Z,60.61
2022-09-01T19:06:30.451Z,60.62
2022-09-01T19:09:14.397Z,61.01
2022-09-01T19:12:02.759Z,61.07
2022-09-01T19:14:42.437Z,61.60
2022-09-01T19:17:53.522Z,61.76
2022-09-01T19:20:29.015Z,61.90
2022-09-01T19:23:05.452Z,62.02
2022-09-01T19:25:37.659Z,62.07
2022-09-01T19:28:15.155Z,62.27
2022-09-01T19:30:52.809Z,62.34
2022-09-01T19:33:35.928Z,62.71
2022-09-01T19:36:09.825Z,62.77
2022-09-01T19:38:38.560Z,63.09
2022-09-01T19:41:16.007Z,63.22
2022-09-01T19:43:44.339Z,63.21
2022-09-01T19:46:30.712Z,63.61
2022-09-01T19:49:11.421Z,63.70
2022-09-01T19:51:49.205Z,63.68
2022-09-01T19:54:27.755Z,63.81
2022-09-01T19:57:03.912Z,64.22
2022-09-01T19:59:47.890Z,63.95
2022-09-01T20:02:28.225Z,64.53
2022-09-01T20:05:06.967Z,64.71
2022-09-01T20:07:40.612Z,64.63
2022-09-01T20:10:23.355Z,64.93
2022-09-01T20:13:11.650Z,64.98
2022-09-01T20:15:52.307Z,65.16
2022-09-01T20:18:31.533Z,65.41
2022-09-01T20:21:04.902Z,65.41
2022-09-01T20:23:43.528Z,65.59
2022-09-01T20:26:19.070Z,65.44
2022-09-01T20:28:53.858Z,65.64
2022-09-01T20:31:32.038Z,65.91
2022-09-01T20:34:08.971Z,65.82
2022-09-01T20:36:46.028Z,65.88
2022-09-01T20:39:41.511Z,66.02
2022-09-01T20:42:19.758Z,66.16
2022-09-01T20:44:56.266Z,66.45
2022-09-01T20:47:28.290Z,66.59
2022-09-01T20:50:00.395Z,66.45
2022-09-01T20:52:38.270Z,66.53
2022-09-01T20:55:17.083Z,66.76
2022-09-01T20:57:54.378Z,66.77
2022-09-01T21:00:25.914Z,66.76
2022-09-01T21:03:12.059Z,66.88
2022-09-01T21:05:50.941Z,67.07
2022-09-01T21:08:37.016Z,67.00
2022-09-01T21:11:22.285Z,67.40
2022-09-01T21:14:07.424Z,67.38
2022-09-01T21:16:48.056Z,67.34
2022-09-01T21:19:26.492Z,67.59
2022-09-01T21:22:06.945Z,67.68
2022-09-01T21:24:36.186Z,67.71
2022-09-01T21:27:11.521Z,67.65
2022-09-01T21:29:54.421Z,67.93
2022-09-01T21:32:23.768Z,67.94
2022-09-01T21:34:54.024Z,67.92
2022-09-01T21:37:25.029Z,67.91
2022-09-01T21:39:54.316Z,68.25
2022-09-01T21:42:27.213Z,68.12
2022-09-01T21:44:58.330Z,68.29
2022-09-01T21:47:28.391Z,68.56
2022-09-01T21:49:57.035Z,68.47
2022-09-01T21:52:27.372Z,68.59
2022-09-01T21:54:55.734Z,68.75
2022-09-01T21:57:24.094Z,68.67
2022-09-01T21:59:52.809Z,68.96
2022-09-01T22:02:21.611Z,68.98
2022-09-01T22:04:56.591Z,68.84
2022-09-01T22:07:26.259Z,69.25
2022-09-01T22:09:54.746Z,69.17
2022-09-01T22:12:23.022Z,69.25
2022-09-01T22:14:51.323Z,69.35
2022-09-01T22:17:19.736Z,69.31
2022-09-01T22:19:48.796Z,69.31
2022-09-01T22:22:17.471Z,69.50
2022-09-01T22:24:47.100Z,69.69
2022-09-01T22:27:15.390Z,69.54
2022-09-01T22:29:43.764Z,69.72
2022-09-01T22:32:12.108Z,69.73
2022-09-01T22:34:41.241Z,69.84
2022-09-01T22:37:12.334Z,69.98
2022-09-01T22:39:40.619Z,70.08
2022-09-01T22:42:10.338Z,69.89
2022-09-01T22:44:38.865Z,70.01
2022-09-01T22:47:07.850Z,70.13
2022-09-01T22:49:36.212Z,70.17
2022-09-01T22:52:04.836Z,70.31
2022-09-01T22:54:33.160Z,70.37
2022-09-01T22:57:02.173Z,70.38
2022-09-01T22:59:31.968Z,70.50
2022-09-01T23:02:01.854Z,70.53
2022-09-01T23:04:32.156Z,70.65
2022-09-01T23:07:00.836Z,70.66
2022-09-01T23:09:29.170Z,70.71
2022-09-01T23:11:57.479Z,70.80
2022-09-01T23:14:26.083Z,70.74
2022-09-01T23:16:56.425Z,70.71
2022-09-01T23:19:25.481Z,70.92
2022-09-01T23:21:54.653Z,70.88
2022-09-01T23:24:23.081Z,70.93
2022-09-01T23:26:51.434Z,71.12
2022-09-01T23:29:20.671Z,71.23
2022-09-01T23:31:49.244Z,71.11
2022-09-01T23:34:19.454Z,71.21
2022-09-01T23:36:47.947Z,71.21
2022-09-01T23:39:16.656Z,71.29
2022-09-01T23:41:45.195Z,71.30
2022-09-01T23:44:14.419Z,71.48
2022-09-01T23:46:46.349Z,71.59
2022-09-01T23:49:19.003Z,71.51
2022-09-01T23:51:49.790Z,71.77
2022-09-01T23:54:18.404Z,71.61
2022-09-01T23:56:47.439Z,71.67
2022-09-01T23:59:15.977Z,71.82
